Time;durP1;ratioP1;P1;durP2;ratioP2;P2;SDS_P1;SDS_P2;PMS_P1;PMS_P2;Temp;Humidity;BMP_temperature;BMP_pressure;BME280_temperature;BME280_humidity;BME280_pressure;Samples;Min_cycle;Max_cycle;Signal;HPM_P1;HPM_P2
2024/01/24 00:02:15;;;;;;;12.18;3.40;;;5.20;99.90;;;;;;5104865;28;20319;-76
2024/01/24 00:04:40;;;;;;;13.48;4.20;;;5.20;99.90;;;;;;5092536;28;20032;-75
2024/01/24 00:07:06;;;;;;;9.15;3.30;;;5.20;99.90;;;;;;5092453;28;20055;-75
2024/01/24 00:09:33;;;;;;;11.77;3.38;;;5.20;99.90;;;;;;5092768;28;20027;-75
2024/01/24 00:11:59;;;;;;;11.35;3.65;;;5.20;99.90;;;;;;5092624;28;20055;-76
2024/01/24 00:14:25;;;;;;;11.13;3.13;;;5.30;99.90;;;;;;5074466;28;20481;-77
2024/01/24 00:16:51;;;;;;;9.52;3.42;;;5.30;99.90;;;;;;5092648;28;20028;-76
2024/01/24 00:19:17;;;;;;;9.10;2.80;;;5.30;99.90;;;;;;5092281;28;20379;-75
2024/01/24 00:21:42;;;;;;;7.50;3.15;;;5.30;99.90;;;;;;5091162;28;20024;-75
2024/01/24 00:24:08;;;;;;;10.73;3.20;;;5.30;99.90;;;;;;5091756;28;20465;-75
2024/01/24 00:26:37;;;;;;;9.60;3.30;;;5.30;99.90;;;;;;5092863;28;20103;-76
2024/01/24 00:29:02;;;;;;;10.27;2.88;;;5.30;99.90;;;;;;5090911;28;20134;-76
2024/01/24 00:31:28;;;;;;;10.50;3.25;;;5.40;99.90;;;;;;5092520;28;20076;-76
2024/01/24 00:33:54;;;;;;;10.38;3.63;;;5.30;99.90;;;;;;5093231;28;20032;-75
2024/01/24 00:36:19;;;;;;;10.00;3.35;;;5.40;99.90;;;;;;5091019;28;19919;-77
2024/01/24 00:38:45;;;;;;;11.57;3.78;;;5.40;99.90;;;;;;5093583;28;20036;-78
2024/01/24 00:41:11;;;;;;;9.90;3.00;;;5.40;99.90;;;;;;5094128;28;20032;-75
2024/01/24 00:43:36;;;;;;;10.73;4.05;;;5.30;99.90;;;;;;5093687;28;20032;-76
2024/01/24 00:46:02;;;;;;;9.93;3.22;;;5.30;99.90;;;;;;5092176;28;20031;-75
2024/01/24 00:48:28;;;;;;;6.78;3.17;;;5.40;99.90;;;;;;5092302;28;20429;-75
2024/01/24 00:50:53;;;;;;;8.77;3.03;;;5.40;99.90;;;;;;5092158;28;20456;-75
2024/01/24 00:53:20;;;;;;;11.45;2.65;;;5.40;99.90;;;;;;5094260;28;20024;-77
2024/01/24 00:55:47;;;;;;;8.02;2.65;;;5.40;99.90;;;;;;5094196;28;20147;-76
2024/01/24 00:58:12;;;;;;;6.03;2.83;;;5.40;99.90;;;;;;5092381;28;20078;-76
2024/01/24 01:00:38;;;;;;;11.13;3.25;;;5.40;99.90;;;;;;5092478;28;20052;-76
2024/01/24 01:03:04;;;;;;;10.32;3.13;;;5.40;99.90;;;;;;5091891;28;20028;-75
2024/01/24 01:05:29;;;;;;;11.00;2.83;;;5.40;99.90;;;;;;5091827;28;20096;-76
2024/01/24 01:07:55;;;;;;;8.98;2.70;;;5.40;99.90;;;;;;5091796;28;20035;-76
2024/01/24 01:10:21;;;;;;;9.30;3.53;;;5.40;99.90;;;;;;5091679;28;20036;-76
2024/01/24 01:12:46;;;;;;;7.22;3.45;;;5.40;99.90;;;;;;5091743;28;20039;-76
2024/01/24 01:15:12;;;;;;;8.75;3.10;;;5.40;99.90;;;;;;5095266;28;20084;-75
2024/01/24 01:17:38;;;;;;;10.25;3.30;;;5.40;99.90;;;;;;5096051;28;20036;-76
2024/01/24 01:20:05;;;;;;;7.90;2.80;;;5.40;99.90;;;;;;5095611;28;20127;-74
2024/01/24 01:22:31;;;;;;;11.02;2.60;;;5.40;99.70;;;;;;5096003;28;20034;-75
2024/01/24 01:24:56;;;;;;;6.15;2.50;;;5.40;99.30;;;;;;5095844;28;20491;-75
2024/01/24 01:27:22;;;;;;;10.68;2.63;;;5.40;99.10;;;;;;5095206;28;20016;-75
2024/01/24 01:29:49;;;;;;;5.80;2.47;;;5.50;98.90;;;;;;5095907;28;20120;-76
2024/01/24 01:32:14;;;;;;;6.05;2.40;;;5.40;98.70;;;;;;5095691;28;20027;-76
2024/01/24 01:34:40;;;;;;;6.53;2.03;;;5.50;98.60;;;;;;5095493;28;20032;-75
2024/01/24 01:37:06;;;;;;;3.50;2.03;;;5.50;98.40;;;;;;5095064;28;20367;-75
2024/01/24 01:39:32;;;;;;;7.07;2.65;;;5.50;98.10;;;;;;5095614;28;20131;-75
2024/01/24 01:41:58;;;;;;;9.60;2.15;;;5.50;97.80;;;;;;5095181;28;20024;-76
2024/01/24 01:44:24;;;;;;;6.03;2.30;;;5.60;97.40;;;;;;5094869;28;20035;-76
2024/01/24 01:46:51;;;;;;;6.35;2.30;;;5.60;97.20;;;;;;5104206;28;20029;-76
2024/01/24 01:49:17;;;;;;;6.70;2.60;;;5.60;97.00;;;;;;5115704;28;20032;-76
2024/01/24 01:51:44;;;;;;;6.15;2.22;;;5.60;96.70;;;;;;5115738;28;20103;-76
2024/01/24 01:54:12;;;;;;;7.65;1.90;;;5.70;96.60;;;;;;5115195;28;20387;-77
2024/01/24 01:56:39;;;;;;;5.72;2.35;;;5.70;96.40;;;;;;5115720;28;20428;-75
2024/01/24 01:59:05;;;;;;;7.78;2.47;;;5.70;96.30;;;;;;5115542;28;20321;-75
2024/01/24 02:01:31;;;;;;;7.15;2.63;;;5.70;96.40;;;;;;5115405;28;20448;-75
2024/01/24 02:03:57;;;;;;;7.88;2.70;;;5.70;96.80;;;;;;5114468;28;20031;-75
2024/01/24 02:06:23;;;;;;;8.55;2.30;;;5.60;96.50;;;;;;5115143;28;20460;-75
2024/01/24 02:08:49;;;;;;;6.07;2.30;;;5.60;96.60;;;;;;5097008;28;20031;-75
2024/01/24 02:11:14;;;;;;;8.13;2.83;;;5.60;96.80;;;;;;5094628;28;20020;-76
2024/01/24 02:13:40;;;;;;;8.60;2.22;;;5.60;96.80;;;;;;5094945;28;20024;-76
2024/01/24 02:16:07;;;;;;;7.05;2.42;;;5.60;97.00;;;;;;5094867;28;20036;-76
2024/01/24 02:18:33;;;;;;;11.02;3.10;;;5.60;97.20;;;;;;5095145;28;20486;-76
2024/01/24 02:21:00;;;;;;;4.20;2.20;;;5.60;97.30;;;;;;5094860;28;20059;-76
2024/01/24 02:23:26;;;;;;;8.82;2.88;;;5.60;97.40;;;;;;5094415;28;20024;-76
2024/01/24 02:25:53;;;;;;;10.30;2.92;;;5.60;97.50;;;;;;5094095;28;20039;-75
2024/01/24 02:28:19;;;;;;;9.65;2.42;;;5.60;97.50;;;;;;5093979;28;20034;-75
2024/01/24 02:30:45;;;;;;;9.75;2.78;;;5.60;97.70;;;;;;5094592;28;20028;-76
2024/01/24 02:33:12;;;;;;;7.00;2.75;;;5.60;97.70;;;;;;5094747;28;20023;-77
2024/01/24 02:35:38;;;;;;;10.10;2.47;;;5.60;97.70;;;;;;5094390;28;20460;-76
2024/01/24 02:38:03;;;;;;;10.38;3.10;;;5.60;97.80;;;;;;5094643;28;20165;-76
2024/01/24 02:40:29;;;;;;;5.50;2.22;;;5.60;97.80;;;;;;5092690;28;20119;-77
2024/01/24 02:42:55;;;;;;;6.90;2.83;;;5.60;97.80;;;;;;5092988;28;20055;-76
2024/01/24 02:45:20;;;;;;;4.75;2.22;;;5.60;97.70;;;;;;5094055;28;20066;-76
2024/01/24 02:47:46;;;;;;;7.38;2.42;;;5.70;97.50;;;;;;5092932;28;20032;-75
2024/01/24 02:50:12;;;;;;;8.82;2.22;;;5.60;97.50;;;;;;5093908;28;20031;-75
2024/01/24 02:52:38;;;;;;;7.28;1.95;;;5.60;97.50;;;;;;5094119;28;20024;-75
2024/01/24 02:55:04;;;;;;;5.00;2.13;;;5.60;97.50;;;;;;5094086;28;20081;-76
2024/01/24 02:57:30;;;;;;;9.80;2.47;;;5.70;97.40;;;;;;5094119;28;20416;-75
2024/01/24 02:59:55;;;;;;;5.13;1.70;;;5.70;97.40;;;;;;5093900;28;20444;-75
2024/01/24 03:02:21;;;;;;;5.88;2.47;;;5.70;97.50;;;;;;5093374;28;20028;-75
2024/01/24 03:04:47;;;;;;;9.32;2.05;;;5.70;97.50;;;;;;5094172;28;20098;-76
2024/01/24 03:07:13;;;;;;;6.47;1.98;;;5.70;97.50;;;;;;5093571;28;20449;-74
2024/01/24 03:09:38;;;;;;;8.82;2.55;;;5.70;97.70;;;;;;5093622;28;20027;-74
2024/01/24 03:12:04;;;;;;;7.40;2.28;;;5.80;97.90;;;;;;5093863;28;20028;-76
2024/01/24 03:14:30;;;;;;;5.90;2.00;;;5.80;98.10;;;;;;5093071;28;20031;-75
2024/01/24 03:16:56;;;;;;;8.38;2.67;;;5.80;97.90;;;;;;5093957;28;20607;-75
2024/01/24 03:19:21;;;;;;;8.20;2.40;;;5.80;97.70;;;;;;5093039;28;20414;-74
2024/01/24 03:21:47;;;;;;;9.20;2.88;;;5.80;97.90;;;;;;5093725;28;20117;-75
2024/01/24 03:24:13;;;;;;;8.25;2.65;;;5.80;98.10;;;;;;5093273;28;20028;-75
2024/01/24 03:26:39;;;;;;;10.00;4.25;;;5.80;98.20;;;;;;5093222;28;20028;-76
2024/01/24 03:29:04;;;;;;;6.63;1.98;;;5.80;98.10;;;;;;5092984;28;20064;-76
2024/01/24 03:31:30;;;;;;;7.97;2.78;;;5.80;97.80;;;;;;5092897;28;20456;-74
2024/01/24 03:33:55;;;;;;;7.03;1.90;;;5.80;97.80;;;;;;5093732;28;20032;-75
2024/01/24 03:36:21;;;;;;;2.53;1.23;;;5.90;97.50;;;;;;5092336;28;20432;-75
2024/01/24 03:38:47;;;;;;;3.72;1.50;;;5.90;97.10;;;;;;5092493;28;20024;-76
2024/01/24 03:41:12;;;;;;;4.10;1.48;;;5.90;97.00;;;;;;5092132;28;20116;-75
2024/01/24 03:43:41;;;;;;;4.65;1.55;;;5.90;97.00;;;;;;5092686;28;20048;-76
2024/01/24 03:46:07;;;;;;;7.63;1.60;;;5.80;96.90;;;;;;5091930;28;20036;-76
2024/01/24 03:48:32;;;;;;;5.07;1.67;;;5.90;97.00;;;;;;5091501;28;20031;-74
2024/01/24 03:50:58;;;;;;;6.75;1.70;;;5.90;97.20;;;;;;5093352;28;20035;-77
2024/01/24 03:53:24;;;;;;;5.80;1.80;;;5.90;97.30;;;;;;5092846;28;20330;-76
2024/01/24 03:55:50;;;;;;;3.92;1.67;;;5.90;97.60;;;;;;5109283;28;20027;-75
2024/01/24 03:58:16;;;;;;;7.60;1.92;;;5.80;97.70;;;;;;5114607;28;20452;-74
2024/01/24 04:00:42;;;;;;;4.10;1.70;;;5.80;97.90;;;;;;5107559;28;20123;-75
2024/01/24 04:03:07;;;;;;;3.63;1.58;;;5.80;98.10;;;;;;5092273;28;20027;-76
2024/01/24 04:05:33;;;;;;;5.05;1.70;;;5.80;98.40;;;;;;5092124;28;20340;-75
2024/01/24 04:07:59;;;;;;;5.25;1.90;;;5.70;98.30;;;;;;5091699;28;20028;-75
2024/01/24 04:10:24;;;;;;;7.88;2.20;;;5.70;98.40;;;;;;5091907;28;20027;-75
2024/01/24 04:12:50;;;;;;;6.78;1.83;;;5.70;98.70;;;;;;5090839;28;20020;-76
2024/01/24 04:15:16;;;;;;;6.22;1.75;;;5.60;98.80;;;;;;5091958;28;20349;-75
2024/01/24 04:17:42;;;;;;;6.75;2.33;;;5.60;99.40;;;;;;5091906;28;20098;-76
2024/01/24 04:20:08;;;;;;;5.80;2.00;;;5.60;99.70;;;;;;5092713;28;20422;-76
2024/01/24 04:22:35;;;;;;;6.88;2.33;;;5.50;99.90;;;;;;5091635;28;20039;-76
2024/01/24 04:25:01;;;;;;;7.25;2.38;;;5.50;99.90;;;;;;5092389;28;20081;-76
2024/01/24 04:27:27;;;;;;;3.85;2.05;;;5.50;99.90;;;;;;5092248;28;20036;-76
2024/01/24 04:29:53;;;;;;;12.88;1.95;;;5.50;99.90;;;;;;5091047;28;20024;-75
2024/01/24 04:32:19;;;;;;;9.07;2.83;;;5.50;99.90;;;;;;5091655;28;20103;-75
2024/01/24 04:34:44;;;;;;;6.40;1.95;;;5.40;99.90;;;;;;5092259;28;20028;-76
2024/01/24 04:37:10;;;;;;;5.72;2.40;;;5.40;99.90;;;;;;5092358;28;20072;-76
2024/01/24 04:39:36;;;;;;;7.15;2.50;;;5.40;99.90;;;;;;5091938;28;20473;-76
2024/01/24 04:42:01;;;;;;;8.75;2.72;;;5.40;99.90;;;;;;5090887;28;20078;-75
2024/01/24 04:44:27;;;;;;;7.80;2.17;;;5.40;99.90;;;;;;5091924;28;20074;-75
2024/01/24 04:46:53;;;;;;;5.13;1.98;;;5.30;99.90;;;;;;5094211;28;20418;-76
2024/01/24 04:49:18;;;;;;;7.32;2.08;;;5.30;99.90;;;;;;5094036;28;20031;-76
2024/01/24 04:51:44;;;;;;;7.05;2.40;;;5.30;99.90;;;;;;5092695;28;20053;-75
2024/01/24 04:54:10;;;;;;;5.95;2.00;;;5.30;99.90;;;;;;5092000;28;20021;-76
2024/01/24 04:56:37;;;;;;;4.72;1.90;;;5.30;99.90;;;;;;5091719;28;20102;-76
2024/01/24 04:59:03;;;;;;;4.63;2.20;;;5.30;99.90;;;;;;5092132;28;20434;-76
2024/01/24 05:01:28;;;;;;;5.85;2.08;;;5.30;99.90;;;;;;5092005;28;20051;-75
2024/01/24 05:03:54;;;;;;;8.45;2.13;;;5.30;99.90;;;;;;5092013;28;20025;-74
2024/01/24 05:06:20;;;;;;;7.25;1.90;;;5.30;99.90;;;;;;5091927;28;20108;-76
2024/01/24 05:08:46;;;;;;;10.60;2.33;;;5.20;99.90;;;;;;5092097;28;20024;-76
2024/01/24 05:11:11;;;;;;;5.03;1.67;;;5.20;99.90;;;;;;5092463;28;20099;-76
2024/01/24 05:13:37;;;;;;;5.15;1.85;;;5.20;99.90;;;;;;5091662;28;20020;-76
2024/01/24 05:16:03;;;;;;;7.97;2.67;;;5.30;99.90;;;;;;5092226;28;20077;-77
2024/01/24 05:18:29;;;;;;;5.93;2.20;;;5.30;99.90;;;;;;5091398;28;20036;-77
2024/01/24 05:20:54;;;;;;;5.50;1.98;;;5.30;99.90;;;;;;5091510;28;20024;-76
2024/01/24 05:23:20;;;;;;;6.85;1.50;;;5.30;99.90;;;;;;5091796;28;20060;-76
2024/01/24 05:25:46;;;;;;;5.32;1.83;;;5.30;99.90;;;;;;5090795;28;20055;-75
2024/01/24 05:28:12;;;;;;;5.97;1.83;;;5.30;99.90;;;;;;5091984;28;20024;-76
2024/01/24 05:30:38;;;;;;;5.05;2.28;;;5.30;99.90;;;;;;5091073;28;20374;-75
2024/01/24 05:33:04;;;;;;;6.70;1.48;;;5.30;99.90;;;;;;5091902;28;20031;-75
2024/01/24 05:35:30;;;;;;;6.43;1.70;;;5.20;99.90;;;;;;5091737;28;20503;-73
2024/01/24 05:37:55;;;;;;;6.65;1.77;;;5.30;99.90;;;;;;5090346;28;20060;-74
2024/01/24 05:40:21;;;;;;;5.50;1.58;;;5.20;99.90;;;;;;5090157;28;20024;-75
2024/01/24 05:42:47;;;;;;;7.75;1.70;;;5.30;99.90;;;;;;5091292;28;20024;-75
2024/01/24 05:45:13;;;;;;;6.18;1.45;;;5.30;99.90;;;;;;5091688;28;20422;-75
2024/01/24 05:47:39;;;;;;;2.65;1.38;;;5.20;99.90;;;;;;5090578;28;20027;-74
2024/01/24 05:50:11;;;;;;;4.60;1.88;;;5.20;99.90;;;;;;5091654;28;20028;-75
2024/01/24 05:52:41;;;;;;;7.32;1.60;;;5.30;99.90;;;;;;5094687;28;20028;-75
2024/01/24 05:55:09;;;;;;;5.20;1.70;;;5.20;99.90;;;;;;5095808;28;20032;-74
2024/01/24 05:57:35;;;;;;;6.75;1.88;;;5.20;99.90;;;;;;5097483;28;20051;-75
2024/01/24 06:00:01;;;;;;;4.82;1.95;;;5.20;99.90;;;;;;5102554;28;20085;-73
2024/01/24 06:02:26;;;;;;;7.72;1.83;;;5.20;99.90;;;;;;5101401;28;20028;-75
2024/01/24 06:04:52;;;;;;;5.18;1.48;;;5.30;99.90;;;;;;5104377;28;20036;-73
2024/01/24 06:07:18;;;;;;;4.97;1.90;;;5.20;99.90;;;;;;5111736;28;20102;-74
2024/01/24 06:09:44;;;;;;;3.42;1.60;;;5.20;99.90;;;;;;5109933;28;20026;-74
2024/01/24 06:12:09;;;;;;;4.85;1.50;;;5.20;99.90;;;;;;5106599;28;20412;-75
2024/01/24 06:14:35;;;;;;;4.03;1.55;;;5.30;99.90;;;;;;5100254;28;20538;-74
2024/01/24 06:17:01;;;;;;;6.55;1.50;;;5.30;99.90;;;;;;5094629;28;20032;-75
2024/01/24 06:19:27;;;;;;;6.72;1.80;;;5.30;99.90;;;;;;5094097;28;20052;-73
2024/01/24 06:21:52;;;;;;;5.55;1.60;;;5.30;99.90;;;;;;5092925;28;20058;-76
2024/01/24 06:24:18;;;;;;;5.45;1.80;;;5.30;99.90;;;;;;5094547;28;20437;-74
2024/01/24 06:26:45;;;;;;;5.45;1.67;;;5.30;99.90;;;;;;5094222;28;20330;-75
2024/01/24 06:29:10;;;;;;;7.93;1.63;;;5.30;99.90;;;;;;5094530;28;20035;-76
2024/01/24 06:31:36;;;;;;;7.60;2.03;;;5.30;99.90;;;;;;5093880;28;20024;-75
2024/01/24 06:34:02;;;;;;;6.47;2.03;;;5.30;99.90;;;;;;5094485;28;20084;-74
2024/01/24 06:36:28;;;;;;;5.80;2.22;;;5.40;99.90;;;;;;5092658;28;20040;-74
2024/01/24 06:38:54;;;;;;;5.22;1.80;;;5.40;99.90;;;;;;5094321;28;20115;-75
2024/01/24 06:41:20;;;;;;;7.05;2.08;;;5.40;99.90;;;;;;5094024;28;20488;-74
2024/01/24 06:43:46;;;;;;;7.72;2.03;;;5.40;99.90;;;;;;5093744;28;20034;-74
2024/01/24 06:46:12;;;;;;;4.88;1.92;;;5.40;99.90;;;;;;5093972;28;20380;-74
2024/01/24 06:48:37;;;;;;;5.80;2.20;;;5.50;99.90;;;;;;5093492;28;20028;-76
2024/01/24 06:51:04;;;;;;;8.00;2.10;;;5.40;99.90;;;;;;5094014;28;20142;-74
2024/01/24 06:53:30;;;;;;;7.38;3.33;;;5.50;99.90;;;;;;5092102;28;20024;-74
2024/01/24 06:55:56;;;;;;;5.43;1.73;;;5.50;99.90;;;;;;5093821;28;20409;-74
2024/01/24 06:58:22;;;;;;;4.80;2.38;;;5.50;99.90;;;;;;5093686;28;20028;-74
2024/01/24 07:00:47;;;;;;;6.63;2.00;;;5.50;99.90;;;;;;5092939;28;20296;-74
2024/01/24 07:03:14;;;;;;;9.93;1.88;;;5.50;99.90;;;;;;5093566;28;20020;-75
2024/01/24 07:05:40;;;;;;;5.35;1.88;;;5.60;99.90;;;;;;5093640;28;20032;-75
2024/01/24 07:08:06;;;;;;;3.55;1.45;;;5.60;99.90;;;;;;5092264;28;20060;-74
2024/01/24 07:10:32;;;;;;;4.50;1.48;;;5.60;99.90;;;;;;5093225;28;20044;-74
2024/01/24 07:12:58;;;;;;;3.28;1.58;;;5.60;99.90;;;;;;5093556;28;20413;-74
2024/01/24 07:15:24;;;;;;;6.47;1.88;;;5.60;99.90;;;;;;5092924;28;20077;-74
2024/01/24 07:17:50;;;;;;;5.00;1.88;;;5.60;99.90;;;;;;5093041;28;20063;-74
2024/01/24 07:20:18;;;;;;;3.10;1.33;;;5.60;99.90;;;;;;5093284;28;20055;-74
2024/01/24 07:22:43;;;;;;;12.77;1.92;;;5.70;99.90;;;;;;5093057;28;20111;-75
2024/01/24 07:25:09;;;;;;;9.82;2.53;;;5.70;99.90;;;;;;5093042;28;20028;-74
2024/01/24 07:27:35;;;;;;;5.10;1.98;;;5.70;99.90;;;;;;5092872;28;20444;-73
2024/01/24 07:30:04;;;;;;;4.88;1.67;;;5.70;99.90;;;;;;5093437;28;20027;-75
2024/01/24 07:32:31;;;;;;;5.72;2.15;;;5.70;99.90;;;;;;5091601;28;20112;-73
2024/01/24 07:34:57;;;;;;;4.85;1.73;;;5.80;99.90;;;;;;5092956;28;20510;-74
2024/01/24 07:37:23;;;;;;;5.05;1.80;;;5.80;99.90;;;;;;5093197;28;20346;-76
2024/01/24 07:39:48;;;;;;;5.47;2.17;;;5.80;99.90;;;;;;5092956;28;20127;-75
2024/01/24 07:42:14;;;;;;;6.63;2.15;;;5.80;99.90;;;;;;5093167;28;20024;-75
2024/01/24 07:44:40;;;;;;;3.85;2.20;;;5.90;99.90;;;;;;5092542;28;20388;-75
2024/01/24 07:47:06;;;;;;;7.13;1.80;;;5.90;99.90;;;;;;5092878;28;20027;-74
2024/01/24 07:49:33;;;;;;;6.72;1.98;;;5.90;99.90;;;;;;5092394;28;20513;-75
2024/01/24 07:51:59;;;;;;;4.18;1.80;;;6.00;99.90;;;;;;5092833;28;20032;-76
2024/01/24 07:54:25;;;;;;;5.88;2.17;;;6.10;99.90;;;;;;5092869;28;20035;-75
2024/01/24 07:56:53;;;;;;;5.78;2.05;;;6.10;99.90;;;;;;5074212;28;20036;-74
2024/01/24 07:59:18;;;;;;;5.97;1.98;;;6.20;99.90;;;;;;5092408;28;20457;-74
2024/01/24 08:01:47;;;;;;;6.20;2.20;;;6.20;99.90;;;;;;5092475;28;20101;-74
2024/01/24 08:04:13;;;;;;;7.05;2.10;;;6.30;99.90;;;;;;5099065;28;20019;-74
2024/01/24 08:06:40;;;;;;;6.38;2.08;;;6.40;99.90;;;;;;5109732;28;20047;-74
2024/01/24 08:09:06;;;;;;;3.95;1.90;;;6.40;99.90;;;;;;5092296;28;20051;-75
2024/01/24 08:11:32;;;;;;;7.45;2.40;;;6.50;99.90;;;;;;5092339;28;20020;-75
2024/01/24 08:13:57;;;;;;;6.07;2.20;;;6.50;99.90;;;;;;5092958;28;20030;-74
2024/01/24 08:16:23;;;;;;;5.25;2.35;;;6.60;99.90;;;;;;5091001;28;20028;-75
2024/01/24 08:18:49;;;;;;;4.20;2.28;;;6.60;99.90;;;;;;5092018;28;20024;-75
2024/01/24 08:21:15;;;;;;;6.72;2.50;;;6.70;99.90;;;;;;5092456;28;20544;-74
2024/01/24 08:23:40;;;;;;;6.95;2.58;;;6.70;99.90;;;;;;5091047;28;20035;-75
2024/01/24 08:26:09;;;;;;;3.95;2.10;;;6.80;99.90;;;;;;5091930;28;20051;-75
2024/01/24 08:28:35;;;;;;;9.75;2.63;;;6.90;99.90;;;;;;5091843;28;20111;-74
2024/01/24 08:31:00;;;;;;;8.13;2.97;;;6.90;99.90;;;;;;5092242;28;20099;-75
2024/01/24 08:33:26;;;;;;;7.20;2.58;;;7.00;99.90;;;;;;5092032;28;20050;-74
2024/01/24 08:35:52;;;;;;;8.60;2.75;;;7.10;99.90;;;;;;5091748;28;20541;-74
2024/01/24 08:38:17;;;;;;;11.38;2.78;;;7.20;99.90;;;;;;5091750;28;20024;-74
2024/01/24 08:40:43;;;;;;;5.32;2.03;;;7.30;99.90;;;;;;5091791;28;20028;-74
2024/01/24 08:43:09;;;;;;;5.32;2.33;;;7.30;99.90;;;;;;5092462;28;20047;-75
2024/01/24 08:45:34;;;;;;;7.57;2.17;;;7.40;99.90;;;;;;5091859;28;20126;-74
2024/01/24 08:48:00;;;;;;;5.78;2.33;;;7.50;99.90;;;;;;5091991;28;20030;-75
2024/01/24 08:50:26;;;;;;;5.78;2.47;;;7.60;99.90;;;;;;5092129;28;20031;-74
2024/01/24 08:52:52;;;;;;;7.68;2.88;;;7.60;99.90;;;;;;5091751;28;20379;-74
2024/01/24 08:55:18;;;;;;;4.75;2.38;;;7.70;99.90;;;;;;5091504;28;20055;-74
2024/01/24 08:57:43;;;;;;;5.10;2.50;;;7.80;99.90;;;;;;5091749;28;20079;-73
2024/01/24 09:00:13;;;;;;;6.05;3.00;;;7.90;99.90;;;;;;5091810;28;20078;-74
2024/01/24 09:02:38;;;;;;;5.93;2.88;;;8.00;99.90;;;;;;5091433;28;20027;-74
2024/01/24 09:05:05;;;;;;;7.00;3.22;;;8.00;99.90;;;;;;5091423;28;20024;-74
2024/01/24 09:07:31;;;;;;;6.75;3.05;;;8.10;99.90;;;;;;5090044;28;20108;-74
2024/01/24 09:09:57;;;;;;;4.72;2.45;;;8.10;99.90;;;;;;5091260;28;20032;-74
2024/01/24 09:12:23;;;;;;;6.85;2.75;;;8.10;99.90;;;;;;5091843;28;20032;-75
2024/01/24 09:14:49;;;;;;;6.45;2.83;;;8.10;99.90;;;;;;5090905;28;20081;-73
2024/01/24 09:17:15;;;;;;;6.43;3.30;;;8.00;99.90;;;;;;5091562;28;20449;-75
2024/01/24 09:19:40;;;;;;;6.65;2.97;;;8.00;99.90;;;;;;5091349;28;20070;-74
2024/01/24 09:22:07;;;;;;;8.00;2.92;;;8.00;99.90;;;;;;5091751;28;20417;-75
2024/01/24 09:24:33;;;;;;;5.80;2.63;;;8.00;99.90;;;;;;5091567;28;20035;-74
2024/01/24 09:26:58;;;;;;;5.13;2.80;;;8.00;99.90;;;;;;5091149;28;20024;-74
2024/01/24 09:29:24;;;;;;;6.28;2.53;;;8.10;99.90;;;;;;5091400;28;20035;-75
2024/01/24 09:31:50;;;;;;;7.25;2.83;;;8.20;99.90;;;;;;5091501;28;20039;-74
2024/01/24 09:34:16;;;;;;;7.75;2.92;;;8.20;99.90;;;;;;5090102;28;20472;-73
2024/01/24 09:36:42;;;;;;;13.00;3.83;;;8.30;99.90;;;;;;5093726;28;20109;-74
2024/01/24 09:39:09;;;;;;;6.65;2.65;;;8.40;99.90;;;;;;5095519;28;20444;-74
2024/01/24 09:41:40;;;;;;;7.45;3.00;;;8.50;99.90;;;;;;5095386;28;20024;-73
2024/01/24 09:44:08;;;;;;;10.23;3.33;;;8.60;99.90;;;;;;5095427;28;20103;-74
2024/01/24 09:46:40;;;;;;;7.13;2.65;;;8.60;99.90;;;;;;5095339;28;20032;-74
2024/01/24 09:49:06;;;;;;;5.22;2.25;;;8.70;99.90;;;;;;5095250;28;20032;-74
2024/01/24 09:51:33;;;;;;;7.47;2.10;;;8.80;99.90;;;;;;5094929;28;20475;-74
2024/01/24 09:54:06;;;;;;;7.13;2.63;;;8.90;99.90;;;;;;5094550;28;20444;-75
2024/01/24 09:56:37;;;;;;;6.88;2.22;;;9.00;99.90;;;;;;5095085;28;20036;-74
2024/01/24 09:59:07;;;;;;;6.07;2.22;;;9.20;99.90;;;;;;5094246;28;20048;-74
2024/01/24 10:01:38;;;;;;;4.00;1.27;;;9.40;99.90;;;;;;5107265;28;20055;-74
2024/01/24 10:04:03;;;;;;;2.67;1.52;;;9.50;99.90;;;;;;5113559;28;20077;-75
2024/01/24 10:06:30;;;;;;;2.88;1.27;;;9.70;99.90;;;;;;5115360;28;20028;-75
2024/01/24 10:08:56;;;;;;;2.33;1.35;;;10.00;99.90;;;;;;5114945;28;20375;-75
2024/01/24 10:11:23;;;;;;;1.73;1.23;;;10.10;99.90;;;;;;5115293;28;20099;-74
2024/01/24 10:13:49;;;;;;;2.30;1.13;;;10.30;99.90;;;;;;5114867;28;20409;-74
2024/01/24 10:16:14;;;;;;;3.03;1.10;;;10.50;99.90;;;;;;5115039;28;20035;-74
2024/01/24 10:18:41;;;;;;;1.88;0.90;;;10.70;99.90;;;;;;5115183;28;20027;-74
2024/01/24 10:21:07;;;;;;;3.75;1.27;;;10.90;99.90;;;;;;5115109;28;20023;-74
2024/01/24 10:23:33;;;;;;;4.78;1.38;;;11.10;99.90;;;;;;5115010;28;20516;-74
2024/01/24 10:25:59;;;;;;;2.95;1.25;;;11.20;99.90;;;;;;5114348;28;20536;-74
2024/01/24 10:28:25;;;;;;;5.03;1.10;;;11.30;99.90;;;;;;5115030;28;20024;-74
2024/01/24 10:30:51;;;;;;;2.15;1.10;;;11.40;99.90;;;;;;5114472;28;20027;-74
2024/01/24 10:33:17;;;;;;;1.63;1.10;;;11.50;99.90;;;;;;5115003;28;20436;-74
2024/01/24 10:35:43;;;;;;;3.35;1.20;;;11.60;99.90;;;;;;5114324;28;20101;-72
2024/01/24 10:38:11;;;;;;;1.77;1.00;;;11.70;99.90;;;;;;5114502;28;20031;-74
2024/01/24 10:40:39;;;;;;;3.10;1.05;;;11.80;99.90;;;;;;5114727;28;20042;-74
2024/01/24 10:43:15;;;;;;;3.13;1.20;;;11.90;99.90;;;;;;5114378;28;20209;-74
2024/01/24 10:45:44;;;;;;;1.45;0.98;;;12.10;99.90;;;;;;5114964;28;20032;-74
2024/01/24 10:48:14;;;;;;;2.08;1.20;;;12.20;99.90;;;;;;5112857;28;20168;-74
2024/01/24 10:50:41;;;;;;;2.57;1.33;;;12.30;99.90;;;;;;5114524;28;20156;-74
2024/01/24 10:53:09;;;;;;;2.00;0.95;;;12.40;99.90;;;;;;5114050;28;20439;-74
2024/01/24 10:55:36;;;;;;;3.38;1.40;;;12.70;99.90;;;;;;5114484;28;20032;-75
2024/01/24 10:58:02;;;;;;;3.20;1.08;;;12.90;99.60;;;;;;5113750;28;20054;-75
2024/01/24 11:00:29;;;;;;;6.60;2.30;;;13.10;99.20;;;;;;5113892;28;20069;-74
2024/01/24 11:02:56;;;;;;;1.45;0.98;;;13.20;98.70;;;;;;5113907;28;20024;-74
2024/01/24 11:05:54;;;;;;;3.20;1.67;;;13.40;97.70;;;;;;5112825;28;20028;-74
2024/01/24 11:08:48;;;;;;;2.72;1.60;;;13.60;96.90;;;;;;5110084;28;20148;-74
2024/01/24 11:11:18;;;;;;;2.42;1.20;;;13.70;96.40;;;;;;5073631;28;20025;-75
2024/01/24 11:13:44;;;;;;;1.98;1.20;;;13.80;95.40;;;;;;5073535;28;20048;-74
2024/01/24 11:16:25;;;;;;;1.05;0.80;;;13.90;94.60;;;;;;5072951;28;20039;-74
2024/01/24 11:18:51;;;;;;;1.50;1.02;;;14.00;94.10;;;;;;5071497;28;20029;-74
2024/01/24 11:21:21;;;;;;;1.75;1.00;;;14.10;93.80;;;;;;5073305;28;20043;-74
2024/01/24 11:23:48;;;;;;;3.17;0.95;;;14.10;93.30;;;;;;5072949;28;20104;-73
2024/01/24 11:26:16;;;;;;;2.22;1.15;;;14.20;93.10;;;;;;5073066;28;20032;-74
2024/01/24 11:28:42;;;;;;;3.58;1.10;;;14.20;92.90;;;;;;5073216;28;20024;-74
2024/01/24 11:31:09;;;;;;;2.15;1.17;;;14.20;92.70;;;;;;5072396;28;20548;-73
2024/01/24 11:33:34;;;;;;;3.97;0.90;;;14.20;92.70;;;;;;5073090;28;20104;-74
2024/01/24 11:36:03;;;;;;;1.48;1.05;;;14.20;92.40;;;;;;5072487;28;20123;-73
2024/01/24 11:38:28;;;;;;;5.32;1.00;;;14.30;92.40;;;;;;5071483;28;20353;-74
2024/01/24 11:40:59;;;;;;;1.65;0.73;;;14.30;92.30;;;;;;5072640;28;20032;-73
2024/01/24 11:43:33;;;;;;;2.53;1.20;;;14.20;92.30;;;;;;5072917;28;20016;-74
2024/01/24 11:46:06;;;;;;;1.48;0.90;;;14.20;92.50;;;;;;5071976;28;20028;-74
2024/01/24 11:48:33;;;;;;;1.85;0.93;;;14.20;92.50;;;;;;5072795;28;20032;-74
2024/01/24 11:51:09;;;;;;;1.58;0.90;;;14.10;92.50;;;;;;5072252;28;20371;-74
2024/01/24 11:53:35;;;;;;;1.20;0.85;;;14.10;92.60;;;;;;5072575;28;20039;-73
2024/01/24 11:56:06;;;;;;;1.95;0.98;;;14.10;92.60;;;;;;5075923;28;20036;-74
2024/01/24 11:58:32;;;;;;;4.53;0.85;;;14.10;92.60;;;;;;5092101;28;20028;-75
2024/01/24 12:01:02;;;;;;;1.60;0.70;;;14.10;92.60;;;;;;5092467;28;20097;-74
2024/01/24 12:03:28;;;;;;;3.63;0.80;;;14.20;92.40;;;;;;5092739;28;20077;-75
2024/01/24 12:05:54;;;;;;;1.85;0.85;;;14.20;92.30;;;;;;5095834;28;20394;-75
2024/01/24 12:08:20;;;;;;;1.63;0.80;;;14.20;92.30;;;;;;5113064;28;20034;-74
2024/01/24 12:10:46;;;;;;;2.55;0.95;;;14.20;92.20;;;;;;5113058;28;20072;-74
2024/01/24 12:13:13;;;;;;;3.10;0.90;;;14.20;91.90;;;;;;5112685;28;20110;-74
2024/01/24 12:15:40;;;;;;;2.25;1.05;;;14.30;92.00;;;;;;5112876;28;20036;-75
2024/01/24 12:18:09;;;;;;;3.42;1.00;;;14.30;91.90;;;;;;5112635;28;20041;-75
2024/01/24 12:20:36;;;;;;;1.85;0.85;;;14.20;91.60;;;;;;5112609;28;20028;-74
2024/01/24 12:23:03;;;;;;;1.38;0.90;;;14.30;91.50;;;;;;5112612;28;20032;-74
2024/01/24 12:25:29;;;;;;;2.75;0.90;;;14.30;91.50;;;;;;5112708;28;20392;-75
2024/01/24 12:27:57;;;;;;;1.95;0.90;;;14.30;91.60;;;;;;5111078;28;20068;-75
2024/01/24 12:30:26;;;;;;;2.70;1.05;;;14.30;91.30;;;;;;5112791;28;20128;-75
2024/01/24 12:32:56;;;;;;;2.65;0.80;;;14.30;91.10;;;;;;5112472;28;20023;-76
2024/01/24 12:35:23;;;;;;;1.45;0.90;;;14.40;90.70;;;;;;5112781;28;20024;-75
2024/01/24 12:37:49;;;;;;;2.05;0.82;;;14.50;90.40;;;;;;5112714;28;20027;-76
2024/01/24 12:40:16;;;;;;;1.40;0.90;;;14.60;90.20;;;;;;5112096;28;20072;-74
2024/01/24 12:42:42;;;;;;;3.50;0.80;;;14.70;89.70;;;;;;5111316;28;20353;-74
2024/01/24 12:45:12;;;;;;;1.50;0.82;;;14.70;89.30;;;;;;5112027;28;20035;-75
2024/01/24 12:47:42;;;;;;;1.55;0.95;;;14.80;88.90;;;;;;5110855;28;20032;-74
2024/01/24 12:50:10;;;;;;;2.10;1.20;;;14.80;89.00;;;;;;5112041;28;20433;-74